createdAt,value
2018-09-17T00:01:39.195Z,43.30
2018-09-17T00:04:09.450Z,43.77
2018-09-17T00:06:39.880Z,44.43
2018-09-17T00:09:12.522Z,43.13
2018-09-17T00:11:42.927Z,43.10
2018-09-17T00:14:13.375Z,43.40
2018-09-17T00:16:43.777Z,43.97
2018-09-17T00:19:14.431Z,43.13
2018-09-17T00:21:44.564Z,43.67
2018-09-17T00:24:15.131Z,43.30
2018-09-17T00:26:47.240Z,43.17
2018-09-17T00:29:19.411Z,43.47
2018-09-17T00:31:54.989Z,42.90
2018-09-17T00:34:25.170Z,42.40
2018-09-17T00:36:55.706Z,43.53
2018-09-17T00:39:26.316Z,43.13
2018-09-17T00:41:56.636Z,43.07
2018-09-17T00:44:27.728Z,43.83
2018-09-17T00:46:57.831Z,43.13
2018-09-17T00:49:29.466Z,44.03
2018-09-17T00:51:59.828Z,42.90
2018-09-17T00:54:30.518Z,43.67
2018-09-17T00:57:02.295Z,43.13
2018-09-17T00:59:33.575Z,43.57
2018-09-17T01:02:06.190Z,42.87
2018-09-17T01:04:36.256Z,42.87
2018-09-17T01:07:06.638Z,43.03
2018-09-17T01:09:43.784Z,42.57
2018-09-17T01:12:15.492Z,43.27
2018-09-17T01:14:46.370Z,42.03
2018-09-17T01:17:16.906Z,42.87
2018-09-17T01:19:47.001Z,43.40
2018-09-17T01:22:17.156Z,42.67
2018-09-17T01:24:47.488Z,43.63
2018-09-17T01:27:17.489Z,43.87
2018-09-17T01:29:47.559Z,44.13
2018-09-17T01:32:17.600Z,44.07
2018-09-17T01:34:48.487Z,44.87
2018-09-17T01:37:19.184Z,44.53
2018-09-17T01:39:49.502Z,45.07
2018-09-17T01:42:20.060Z,44.83
2018-09-17T01:44:50.946Z,45.27
2018-09-17T01:47:21.733Z,44.10
2018-09-17T01:49:51.758Z,44.27
2018-09-17T01:52:22.172Z,44.53
2018-09-17T01:54:53.463Z,43.43
2018-09-17T01:57:23.529Z,43.27
2018-09-17T01:59:54.213Z,43.30
2018-09-17T02:02:25.416Z,43.83
2018-09-17T02:04:55.705Z,43.20
2018-09-17T02:07:26.266Z,43.70
2018-09-17T02:09:56.449Z,43.73
2018-09-17T02:12:26.915Z,43.37
2018-09-17T02:14:57.506Z,43.73
2018-09-17T02:17:27.845Z,43.13
2018-09-17T02:19:57.844Z,43.40
2018-09-17T02:22:27.807Z,43.50
2018-09-17T02:25:00.078Z,43.43
2018-09-17T02:27:33.169Z,43.10
2018-09-17T02:30:04.985Z,43.57
2018-09-17T02:32:35.579Z,43.83
2018-09-17T02:35:05.691Z,43.80
2018-09-17T02:37:36.032Z,43.57
2018-09-17T02:40:10.440Z,43.93
2018-09-17T02:42:40.936Z,43.43
2018-09-17T02:45:11.564Z,44.10
2018-09-17T02:47:42.301Z,44.10
2018-09-17T02:50:12.303Z,44.13
2018-09-17T02:52:42.523Z,44.07
2018-09-17T02:55:13.775Z,44.43
2018-09-17T02:57:44.226Z,43.90
2018-09-17T03:00:14.424Z,44.63
2018-09-17T03:02:44.671Z,42.77
2018-09-17T03:05:16.038Z,43.30
2018-09-17T03:07:47.546Z,42.93
2018-09-17T03:10:17.772Z,43.67
2018-09-17T03:12:47.931Z,43.53
2018-09-17T03:15:34.491Z,44.03
2018-09-17T03:18:04.794Z,43.13
2018-09-17T03:20:34.958Z,43.47
2018-09-17T03:23:05.191Z,42.90
2018-09-17T03:25:35.335Z,42.83
2018-09-17T03:28:05.524Z,43.10
2018-09-17T03:30:35.704Z,42.60
2018-09-17T03:33:05.955Z,42.40
2018-09-17T03:35:35.844Z,42.73
2018-09-17T03:38:27.332Z,42.80
2018-09-17T03:40:58.425Z,42.73
2018-09-17T03:43:32.393Z,42.60
2018-09-17T03:46:02.504Z,42.17
2018-09-17T03:48:33.553Z,42.13
2018-09-17T03:51:05.208Z,41.47
2018-09-17T03:53:36.941Z,41.63
2018-09-17T03:56:07.835Z,41.57
2018-09-17T03:58:38.423Z,42.37
2018-09-17T04:01:08.873Z,42.80
2018-09-17T04:03:40.241Z,42.57
2018-09-17T04:06:10.623Z,43.07
2018-09-17T04:08:41.275Z,43.17
2018-09-17T04:11:11.230Z,43.90
2018-09-17T04:13:41.635Z,43.33
2018-09-17T04:16:11.960Z,44.90
2018-09-17T04:18:42.012Z,43.90
2018-09-17T04:21:13.140Z,43.53
2018-09-17T04:23:43.397Z,43.90
2018-09-17T04:26:13.909Z,44.27
2018-09-17T04:28:44.309Z,44.77
2018-09-17T04:31:14.533Z,44.73
2018-09-17T04:33:45.070Z,45.07
2018-09-17T04:36:15.210Z,44.37
2018-09-17T04:38:45.501Z,44.17
2018-09-17T04:41:15.855Z,44.97
2018-09-17T04:43:46.398Z,44.53
2018-09-17T04:46:16.606Z,44.33
2018-09-17T04:48:46.883Z,45.30
2018-09-17T04:51:17.031Z,45.27
2018-09-17T04:53:48.249Z,45.03
2018-09-17T04:56:20.733Z,44.73
2018-09-17T04:58:50.827Z,45.23
2018-09-17T05:01:21.545Z,46.30
2018-09-17T05:03:51.747Z,46.30
2018-09-17T05:06:22.855Z,45.17
2018-09-17T05:08:54.075Z,44.57
2018-09-17T05:11:24.937Z,45.33
2018-09-17T05:13:55.898Z,45.73
2018-09-17T05:16:26.381Z,45.80
2018-09-17T05:18:56.707Z,44.97
2018-09-17T05:21:27.787Z,45.33
2018-09-17T05:23:57.863Z,45.93
2018-09-17T05:26:28.071Z,45.53
2018-09-17T05:28:58.567Z,45.03
2018-09-17T05:31:29.502Z,45.27
2018-09-17T05:33:59.701Z,45.50
2018-09-17T05:36:30.585Z,45.50
2018-09-17T05:39:00.782Z,45.30
2018-09-17T05:41:31.710Z,44.93
2018-09-17T05:44:02.060Z,45.83
2018-09-17T05:46:32.334Z,45.20
2018-09-17T05:49:02.689Z,45.17
2018-09-17T05:51:32.738Z,45.13
2018-09-17T05:54:03.515Z,44.93
2018-09-17T05:56:34.943Z,44.53
2018-09-17T05:59:05.541Z,45.53
2018-09-17T06:01:35.872Z,44.33
2018-09-17T06:04:07.472Z,45.00
2018-09-17T06:06:37.849Z,45.17
2018-09-17T06:09:12.702Z,45.10
2018-09-17T06:11:43.818Z,45.37
2018-09-17T06:14:13.923Z,45.03
2018-09-17T06:16:45.088Z,44.93
2018-09-17T06:19:15.414Z,45.73
2018-09-17T06:21:46.424Z,44.93
2018-09-17T06:24:16.694Z,45.70
2018-09-17T06:26:47.896Z,45.43
2018-09-17T06:29:19.068Z,44.93
2018-09-17T06:31:49.283Z,45.83
2018-09-17T06:34:19.431Z,44.93
2018-09-17T06:36:49.706Z,45.50
2018-09-17T06:39:20.111Z,45.10
2018-09-17T06:41:50.470Z,44.73
2018-09-17T06:44:21.043Z,45.20
2018-09-17T06:46:51.220Z,44.43
2018-09-17T06:49:21.781Z,44.67
2018-09-17T06:51:51.884Z,44.07
2018-09-17T06:54:22.223Z,45.03
2018-09-17T06:56:52.890Z,44.97
2018-09-17T06:59:22.975Z,45.03
2018-09-17T07:01:53.345Z,46.87
2018-09-17T07:04:23.434Z,44.70
2018-09-17T07:06:53.552Z,45.13
2018-09-17T07:09:23.887Z,43.73
2018-09-17T07:11:54.011Z,44.47
2018-09-17T07:14:25.401Z,43.97
2018-09-17T07:16:55.737Z,44.63
2018-09-17T07:19:26.260Z,44.30
2018-09-17T07:21:57.124Z,44.90
2018-09-17T07:24:27.388Z,44.67
2018-09-17T07:26:58.503Z,43.93
2018-09-17T07:29:28.728Z,45.00
2018-09-17T07:31:58.792Z,45.20
2018-09-17T07:34:28.908Z,45.43
2018-09-17T07:37:00.581Z,45.53
2018-09-17T07:39:30.888Z,45.43
2018-09-17T07:42:01.496Z,47.63
2018-09-17T07:44:31.484Z,45.53
2018-09-17T07:47:01.980Z,44.40
2018-09-17T07:49:38.795Z,44.93
2018-09-17T07:52:09.501Z,44.00
2018-09-17T07:54:41.053Z,43.80
2018-09-17T07:57:11.732Z,44.27
2018-09-17T07:59:41.814Z,44.03
2018-09-17T08:02:12.340Z,44.60
2018-09-17T08:04:43.026Z,44.70
2018-09-17T08:07:13.274Z,44.30
2018-09-17T08:09:44.103Z,45.47
2018-09-17T08:12:14.328Z,44.30
2018-09-17T08:14:44.718Z,44.97
2018-09-17T08:17:15.011Z,44.97
2018-09-17T08:19:45.091Z,43.93
2018-09-17T08:22:16.620Z,44.83
2018-09-17T08:24:47.591Z,44.60
2018-09-17T08:27:17.627Z,45.37
2018-09-17T08:29:48.202Z,45.80
2018-09-17T08:32:18.546Z,45.70
2018-09-17T08:34:49.233Z,45.00
2018-09-17T08:37:19.821Z,45.73
2018-09-17T08:39:50.559Z,45.50
2018-09-17T08:42:20.818Z,45.23
2018-09-17T08:44:51.137Z,44.33
2018-09-17T08:47:27.786Z,45.33
2018-09-17T08:49:58.037Z,45.33
2018-09-17T08:52:29.045Z,44.87
2018-09-17T08:55:05.382Z,44.83
2018-09-17T08:57:41.303Z,44.77
2018-09-17T09:00:17.039Z,44.07
2018-09-17T09:02:51.957Z,44.60
2018-09-17T09:05:27.378Z,43.97
2018-09-17T09:07:57.929Z,44.83
2018-09-17T09:10:33.062Z,43.87
2018-09-17T09:13:08.181Z,44.97
2018-09-17T09:15:40.112Z,43.93
2018-09-17T09:18:10.806Z,44.40
2018-09-17T09:20:43.760Z,44.37
2018-09-17T09:23:13.740Z,45.07
2018-09-17T09:25:44.224Z,44.47
2018-09-17T09:28:14.383Z,44.20
2018-09-17T09:30:46.970Z,43.97
2018-09-17T09:33:17.865Z,43.93
2018-09-17T09:35:48.742Z,44.03
2018-09-17T09:38:18.998Z,43.97
2018-09-17T09:40:49.788Z,43.67
2018-09-17T09:43:19.981Z,43.93
2018-09-17T09:45:50.189Z,43.70
2018-09-17T09:48:20.568Z,44.10
2018-09-17T09:50:51.830Z,43.93
2018-09-17T09:53:22.036Z,43.40
2018-09-17T09:55:52.896Z,42.97
2018-09-17T09:58:24.211Z,42.43
2018-09-17T10:00:59.858Z,43.43
2018-09-17T10:03:34.518Z,43.17
2018-09-17T10:06:04.883Z,42.87
2018-09-17T10:08:39.691Z,43.90
2018-09-17T10:11:14.987Z,43.10
2018-09-17T10:13:50.435Z,44.17
2018-09-17T10:16:21.529Z,43.93
2018-09-17T10:18:56.955Z,43.97
2018-09-17T10:21:29.337Z,43.23
2018-09-17T10:24:00.664Z,43.37
2018-09-17T10:26:30.984Z,43.33
2018-09-17T10:29:01.050Z,43.77
2018-09-17T10:31:32.104Z,43.60
2018-09-17T10:34:02.012Z,44.03
2018-09-17T10:36:32.387Z,43.63
2018-09-17T10:39:02.568Z,44.10
2018-09-17T10:41:33.463Z,43.60
2018-09-17T10:44:04.000Z,43.43
2018-09-17T10:46:34.378Z,44.43
2018-09-17T10:49:04.666Z,44.10
2018-09-17T10:51:35.155Z,44.03
2018-09-17T10:54:05.321Z,44.73
2018-09-17T10:56:35.619Z,44.33
2018-09-17T10:59:05.953Z,43.30
2018-09-17T11:01:35.784Z,47.23
2018-09-17T11:04:09.641Z,43.83
2018-09-17T11:06:40.199Z,43.53
2018-09-17T11:09:12.595Z,43.90
2018-09-17T11:11:43.179Z,43.87
2018-09-17T11:14:13.368Z,43.30
2018-09-17T11:16:43.540Z,43.90
2018-09-17T11:19:13.796Z,44.37
2018-09-17T11:21:44.038Z,44.37
2018-09-17T11:24:14.580Z,44.17
2018-09-17T11:26:44.840Z,43.73
2018-09-17T11:29:15.126Z,43.40
2018-09-17T11:31:45.184Z,43.97
2018-09-17T11:34:18.314Z,43.87
2018-09-17T11:36:48.475Z,44.20
2018-09-17T11:39:19.400Z,43.53
2018-09-17T11:41:49.586Z,44.20
2018-09-17T11:44:19.579Z,43.87
2018-09-17T11:46:50.480Z,43.77
2018-09-17T11:49:20.844Z,43.47
2018-09-17T11:51:51.138Z,44.20
2018-09-17T11:54:21.372Z,43.97
2018-09-17T11:56:51.643Z,43.53
2018-09-17T11:59:22.257Z,43.23
2018-09-17T12:01:57.549Z,43.07
2018-09-17T12:04:32.081Z,43.57
2018-09-17T12:07:08.324Z,43.13
2018-09-17T12:09:39.566Z,43.50
2018-09-17T12:12:10.717Z,42.83
2018-09-17T12:14:41.124Z,44.37
2018-09-17T12:17:12.219Z,43.27
2018-09-17T12:19:42.521Z,43.67
2018-09-17T12:22:12.768Z,43.27
2018-09-17T12:24:43.155Z,43.33
2018-09-17T12:27:16.253Z,43.37
2018-09-17T12:29:46.979Z,44.07
2018-09-17T12:32:17.489Z,42.90
2018-09-17T12:34:47.393Z,44.10
2018-09-17T12:37:18.915Z,43.83
2018-09-17T12:39:49.372Z,43.97
2018-09-17T12:42:20.751Z,44.93
2018-09-17T12:44:51.204Z,43.43
2018-09-17T12:47:22.112Z,42.80
2018-09-17T12:49:52.520Z,44.33
2018-09-17T12:52:23.421Z,44.00
2018-09-17T12:54:53.778Z,43.63
2018-09-17T12:57:24.822Z,44.50
2018-09-17T12:59:55.974Z,44.20
2018-09-17T13:02:26.500Z,43.33
2018-09-17T13:04:56.587Z,44.20
2018-09-17T13:07:26.831Z,44.20
2018-09-17T13:09:57.387Z,45.33
2018-09-17T13:12:27.824Z,44.30
2018-09-17T13:14:58.407Z,43.67
2018-09-17T13:17:28.592Z,44.07
2018-09-17T13:19:59.690Z,43.80
2018-09-17T13:22:29.715Z,44.23
2018-09-17T13:25:00.394Z,44.33
2018-09-17T13:27:30.506Z,44.67
2018-09-17T13:30:00.677Z,44.43
2018-09-17T13:32:30.833Z,44.67
2018-09-17T13:35:01.161Z,43.97
2018-09-17T13:37:31.268Z,44.97
2018-09-17T13:40:01.505Z,44.43
2018-09-17T13:42:31.825Z,44.23
2018-09-17T13:45:02.523Z,44.00
2018-09-17T13:47:33.217Z,44.37
2018-09-17T13:50:03.421Z,44.27
2018-09-17T13:52:33.580Z,44.20
2018-09-17T13:55:04.129Z,45.00
2018-09-17T13:57:34.978Z,44.63
2018-09-17T14:00:05.678Z,43.63
2018-09-17T14:02:35.820Z,44.27
2018-09-17T14:05:06.236Z,44.40
2018-09-17T14:07:36.748Z,44.60
2018-09-17T14:10:07.964Z,44.40
2018-09-17T14:12:38.068Z,44.90
2018-09-17T14:15:08.381Z,44.53
2018-09-17T14:17:38.686Z,44.37
2018-09-17T14:20:08.798Z,44.37
2018-09-17T14:22:39.440Z,44.10
2018-09-17T14:25:10.746Z,44.67
2018-09-17T14:27:41.218Z,43.70
2018-09-17T14:30:13.108Z,44.70
2018-09-17T14:32:48.335Z,45.10
2018-09-17T14:35:18.721Z,44.50
2018-09-17T14:37:49.003Z,45.63
2018-09-17T14:40:19.291Z,44.57
2018-09-17T14:42:50.232Z,45.37
2018-09-17T14:45:20.353Z,45.80
2018-09-17T14:47:50.493Z,44.77
2018-09-17T14:50:21.134Z,45.03
2018-09-17T14:52:51.789Z,45.47
2018-09-17T14:55:22.560Z,45.30
2018-09-17T14:57:52.689Z,44.33
2018-09-17T15:00:25.972Z,45.50
2018-09-17T15:02:56.794Z,45.05
2018-09-17T15:05:26.965Z,45.28
2018-09-17T15:07:57.285Z,45.88
2018-09-17T15:10:27.439Z,45.90
2018-09-17T15:12:57.985Z,45.78
2018-09-17T15:15:28.174Z,45.92
2018-09-17T15:17:58.554Z,46.10
2018-09-17T15:20:28.850Z,47.03
2018-09-17T15:22:59.323Z,46.40
2018-09-17T15:25:29.485Z,46.53
2018-09-17T15:27:59.833Z,46.95
2018-09-17T15:30:30.241Z,46.28
2018-09-17T15:33:00.245Z,45.95
2018-09-17T15:35:30.676Z,46.58
2018-09-17T15:38:01.135Z,46.85
2018-09-17T15:40:31.957Z,46.30
2018-09-17T15:43:03.745Z,46.58
2018-09-17T15:45:33.955Z,46.37
2018-09-17T15:48:04.442Z,47.23
2018-09-17T15:50:34.836Z,46.68
2018-09-17T15:53:05.090Z,47.30
2018-09-17T15:55:35.123Z,47.10
2018-09-17T15:58:05.505Z,46.68
2018-09-17T16:00:35.520Z,46.50
2018-09-17T16:03:05.768Z,46.48
2018-09-17T16:05:36.095Z,47.00
2018-09-17T16:08:07.949Z,46.73
2018-09-17T16:10:38.558Z,47.00
2018-09-17T16:13:09.042Z,46.77
2018-09-17T16:15:39.416Z,46.63
2018-09-17T16:18:10.357Z,45.85
2018-09-17T16:20:40.573Z,46.05
2018-09-17T16:23:11.264Z,47.58
2018-09-17T16:25:43.589Z,47.40
2018-09-17T16:28:14.799Z,45.90
2018-09-17T16:30:46.511Z,45.95
2018-09-17T16:33:18.120Z,45.85
2018-09-17T16:35:49.207Z,46.00
2018-09-17T16:38:19.404Z,47.15
2018-09-17T16:40:49.471Z,46.75
2018-09-17T16:43:20.035Z,47.70
2018-09-17T16:45:50.243Z,47.05
2018-09-17T16:48:20.520Z,46.53
2018-09-17T16:50:50.791Z,47.60
2018-09-17T16:53:21.395Z,47.62
2018-09-17T16:55:52.141Z,46.80
2018-09-17T16:58:22.846Z,47.00
2018-09-17T17:00:53.343Z,47.17
2018-09-17T17:03:23.399Z,46.53
2018-09-17T17:05:53.790Z,46.83
2018-09-17T17:08:24.051Z,46.40
2018-09-17T17:10:54.609Z,46.77
2018-09-17T17:13:24.628Z,46.10
2018-09-17T17:15:55.924Z,47.03
2018-09-17T17:18:30.034Z,47.23
2018-09-17T17:21:00.289Z,46.73
2018-09-17T17:23:30.647Z,46.93
2018-09-17T17:26:00.882Z,46.77
2018-09-17T17:28:31.260Z,46.37
2018-09-17T17:31:03.448Z,45.50
2018-09-17T17:33:33.784Z,46.33
2018-09-17T17:36:03.896Z,47.03
2018-09-17T17:38:34.682Z,46.60
2018-09-17T17:41:05.583Z,46.33
2018-09-17T17:43:36.796Z,46.40
2018-09-17T17:46:08.762Z,45.63
2018-09-17T17:48:38.853Z,46.27
2018-09-17T17:51:09.299Z,46.80
2018-09-17T17:53:40.393Z,46.43
2018-09-17T17:56:11.213Z,46.33
2018-09-17T17:58:41.409Z,45.23
2018-09-17T18:01:12.205Z,45.90
2018-09-17T18:03:42.786Z,46.63
2018-09-17T18:06:14.409Z,46.30
2018-09-17T18:08:44.653Z,46.00
2018-09-17T18:11:14.960Z,46.30
2018-09-17T18:13:45.211Z,45.83
2018-09-17T18:16:15.211Z,45.13
2018-09-17T18:18:46.068Z,45.53
2018-09-17T18:21:16.369Z,45.13
2018-09-17T18:23:48.381Z,44.83
2018-09-17T18:26:18.850Z,45.20
2018-09-17T18:28:50.078Z,44.50
2018-09-17T18:31:20.989Z,44.33
2018-09-17T18:33:51.872Z,45.03
2018-09-17T18:36:23.608Z,43.77
2018-09-17T18:38:54.034Z,44.40
2018-09-17T18:41:24.231Z,44.43
2018-09-17T18:43:54.732Z,44.20
2018-09-17T18:46:26.695Z,44.30
2018-09-17T18:48:57.767Z,44.00
2018-09-17T18:51:27.706Z,44.50
2018-09-17T18:53:58.639Z,44.10
2018-09-17T18:56:28.816Z,44.10
2018-09-17T18:58:59.120Z,43.80
2018-09-17T19:01:29.012Z,45.07
2018-09-17T19:03:59.459Z,44.23
2018-09-17T19:06:29.799Z,43.90
2018-09-17T19:09:00.104Z,43.27
2018-09-17T19:11:30.823Z,43.00
2018-09-17T19:14:06.246Z,42.93
2018-09-17T19:16:55.959Z,44.73
2018-09-17T19:19:27.018Z,43.70
2018-09-17T19:22:03.810Z,43.67
2018-09-17T19:24:33.941Z,44.03
2018-09-17T19:27:04.966Z,43.57
2018-09-17T19:29:35.175Z,44.53
2018-09-17T19:32:06.965Z,43.53
2018-09-17T19:34:37.815Z,43.40
2018-09-17T19:37:13.352Z,43.83
2018-09-17T19:39:49.205Z,43.57
2018-09-17T19:42:21.085Z,43.17
2018-09-17T19:44:56.339Z,43.47
2018-09-17T19:47:26.791Z,45.00
2018-09-17T19:49:57.103Z,43.27
2018-09-17T19:52:28.705Z,43.63
2018-09-17T19:55:00.469Z,44.07
2018-09-17T19:57:35.810Z,43.23
2018-09-17T20:00:08.713Z,43.17
2018-09-17T20:02:39.650Z,44.13
2018-09-17T20:05:14.783Z,43.30
2018-09-17T20:07:45.951Z,44.03
2018-09-17T20:10:16.063Z,43.77
2018-09-17T20:12:46.583Z,43.13
2018-09-17T20:15:16.840Z,42.83
2018-09-17T20:17:47.331Z,43.43
2018-09-17T20:20:17.716Z,44.23
2018-09-17T20:22:49.386Z,42.93
2018-09-17T20:25:21.020Z,43.50
2018-09-17T20:27:53.302Z,43.43
2018-09-17T20:30:23.460Z,43.33
2018-09-17T20:32:57.673Z,44.10
2018-09-17T20:35:28.665Z,43.03
2018-09-17T20:37:58.923Z,43.03
2018-09-17T20:40:29.083Z,43.30
2018-09-17T20:42:59.392Z,42.90
2018-09-17T20:45:29.560Z,43.27
2018-09-17T20:48:01.440Z,43.83
2018-09-17T20:50:31.593Z,42.93
2018-09-17T20:53:01.708Z,42.60
2018-09-17T20:55:31.985Z,43.30
2018-09-17T20:58:02.583Z,43.30
2018-09-17T21:00:32.804Z,42.73
2018-09-17T21:03:05.038Z,42.77
2018-09-17T21:05:35.640Z,42.93
2018-09-17T21:08:07.276Z,42.70
2018-09-17T21:10:38.788Z,42.77
2018-09-17T21:13:09.832Z,42.90
2018-09-17T21:15:41.271Z,42.67
2018-09-17T21:18:13.254Z,42.93
2018-09-17T21:20:43.607Z,42.90
2018-09-17T21:23:13.463Z,43.37
2018-09-17T21:25:43.978Z,43.00
2018-09-17T21:28:15.297Z,42.93
2018-09-17T21:30:46.609Z,42.60
2018-09-17T21:33:18.041Z,41.80
2018-09-17T21:35:49.147Z,41.67
2018-09-17T21:38:19.683Z,42.27
2018-09-17T21:40:51.709Z,41.63
2018-09-17T21:43:23.629Z,42.70
2018-09-17T21:45:53.805Z,42.47
2018-09-17T21:48:24.217Z,42.73
2018-09-17T21:50:54.301Z,42.63
2018-09-17T21:53:24.825Z,43.13
2018-09-17T21:55:55.805Z,42.57
2018-09-17T21:58:25.854Z,42.87
2018-09-17T22:01:01.869Z,42.50
2018-09-17T22:03:33.958Z,42.27
2018-09-17T22:06:04.905Z,42.47
2018-09-17T22:08:40.964Z,41.80
2018-09-17T22:11:11.333Z,41.83
2018-09-17T22:13:41.637Z,42.47
2018-09-17T22:16:12.595Z,41.67
2018-09-17T22:18:43.779Z,41.67
2018-09-17T22:21:16.451Z,41.50
2018-09-17T22:23:47.100Z,42.40
2018-09-17T22:26:17.525Z,42.33
2018-09-17T22:28:47.764Z,42.23
2018-09-17T22:31:19.213Z,42.77
2018-09-17T22:33:49.836Z,42.43
2018-09-17T22:36:20.799Z,42.37
2018-09-17T22:38:51.088Z,42.40
2018-09-17T22:41:21.924Z,42.90
2018-09-17T22:43:52.000Z,42.50
2018-09-17T22:46:23.557Z,42.50
2018-09-17T22:48:54.557Z,42.43
2018-09-17T22:51:24.915Z,42.47
2018-09-17T22:53:55.221Z,42.23
2018-09-17T22:56:25.669Z,42.57
2018-09-17T22:58:55.931Z,42.07
2018-09-17T23:01:25.948Z,47.43
2018-09-17T23:03:56.984Z,42.23
2018-09-17T23:06:28.181Z,41.50
2018-09-17T23:08:58.836Z,41.50
2018-09-17T23:11:29.601Z,42.17
2018-09-17T23:13:59.971Z,42.13
2018-09-17T23:16:32.487Z,42.03
2018-09-17T23:19:02.655Z,41.87
2018-09-17T23:21:32.698Z,41.83
2018-09-17T23:24:03.250Z,42.17
2018-09-17T23:26:33.767Z,42.57
2018-09-17T23:29:04.637Z,42.33
2018-09-17T23:31:36.084Z,41.30
2018-09-17T23:34:06.714Z,42.03
2018-09-17T23:36:37.203Z,41.83
2018-09-17T23:39:12.262Z,42.23
2018-09-17T23:41:44.382Z,42.27
2018-09-17T23:44:14.807Z,42.37
2018-09-17T23:46:46.690Z,41.93
2018-09-17T23:49:17.889Z,42.47
2018-09-17T23:51:51.986Z,41.80
2018-09-17T23:54:25.435Z,41.37
2018-09-17T23:56:56.379Z,41.77
2018-09-17T23:59:26.949Z,41.83
